createdAt,value
2018-09-27T00:01:30.868Z,53.43
2018-09-27T00:03:59.957Z,52.58
2018-09-27T00:06:29.514Z,52.65
2018-09-27T00:08:59.032Z,52.69
2018-09-27T00:11:28.196Z,52.56
2018-09-27T00:13:57.637Z,51.76
2018-09-27T00:16:27.376Z,51.93
2018-09-27T00:18:57.521Z,51.80
2018-09-27T00:21:26.983Z,51.94
2018-09-27T00:23:57.400Z,51.95
2018-09-27T00:26:26.920Z,52.22
2018-09-27T00:28:56.076Z,52.50
2018-09-27T00:31:25.210Z,52.66
2018-09-27T00:33:54.362Z,52.13
2018-09-27T00:36:23.871Z,52.51
2018-09-27T00:38:53.024Z,51.92
2018-09-27T00:41:22.146Z,52.07
2018-09-27T00:43:51.326Z,52.35
2018-09-27T00:46:20.471Z,52.92
2018-09-27T00:48:49.595Z,53.50
2018-09-27T00:51:18.901Z,53.11
2018-09-27T00:53:48.137Z,53.25
2018-09-27T00:56:17.210Z,52.82
2018-09-27T00:58:46.809Z,52.73
2018-09-27T01:01:16.039Z,52.74
2018-09-27T01:03:45.483Z,52.76
2018-09-27T01:06:14.937Z,52.62
2018-09-27T01:08:44.090Z,52.49
2018-09-27T01:11:13.525Z,53.13
2018-09-27T01:13:42.670Z,53.46
2018-09-27T01:16:11.812Z,54.37
2018-09-27T01:18:41.244Z,55.51
2018-09-27T01:21:10.416Z,55.84
2018-09-27T01:23:39.691Z,55.42
2018-09-27T01:26:08.798Z,55.03
2018-09-27T01:28:37.963Z,54.26
2018-09-27T01:31:07.443Z,52.20
2018-09-27T01:33:36.648Z,52.27
2018-09-27T01:36:05.781Z,51.21
2018-09-27T01:38:34.969Z,51.28
2018-09-27T01:41:04.168Z,50.87
2018-09-27T01:43:33.539Z,50.74
2018-09-27T01:46:02.731Z,50.44
2018-09-27T01:48:31.894Z,50.51
2018-09-27T01:51:01.517Z,50.46
2018-09-27T01:53:30.974Z,50.40
2018-09-27T01:56:00.087Z,50.44
2018-09-27T01:58:29.480Z,50.29
2018-09-27T02:00:58.653Z,50.25
2018-09-27T02:03:27.740Z,50.08
2018-09-27T02:05:57.135Z,50.29
2018-09-27T02:08:26.538Z,50.47
2018-09-27T02:10:55.687Z,49.92
2018-09-27T02:15:59.153Z,49.46
2018-09-27T02:18:28.229Z,49.16
2018-09-27T02:20:57.640Z,49.66
2018-09-27T02:23:26.984Z,49.35
2018-09-27T02:25:56.085Z,49.28
2018-09-27T02:28:25.478Z,49.21
2018-09-27T02:30:54.710Z,48.89
2018-09-27T02:33:23.837Z,49.67
2018-09-27T02:35:53.382Z,49.61
2018-09-27T02:38:22.485Z,49.43
2018-09-27T02:40:51.598Z,49.54
2018-09-27T02:43:20.784Z,49.84
2018-09-27T02:45:49.962Z,50.10
2018-09-27T02:48:19.075Z,49.75
2018-09-27T02:50:48.361Z,50.09
2018-09-27T02:53:17.730Z,49.64
2018-09-27T02:55:46.871Z,50.64
2018-09-27T02:58:16.030Z,50.77
2018-09-27T03:00:45.161Z,50.73
2018-09-27T03:03:14.318Z,50.67
2018-09-27T03:05:43.460Z,51.08
2018-09-27T03:08:12.604Z,50.91
2018-09-27T03:10:41.709Z,51.25
2018-09-27T03:13:11.297Z,51.41
2018-09-27T03:15:40.457Z,51.52
2018-09-27T03:18:09.898Z,51.12
2018-09-27T03:20:39.055Z,51.47
2018-09-27T03:23:08.216Z,51.10
2018-09-27T03:25:37.369Z,50.87
2018-09-27T03:28:06.921Z,50.87
2018-09-27T03:30:36.058Z,51.16
2018-09-27T03:33:05.614Z,51.03
2018-09-27T03:35:35.168Z,51.02
2018-09-27T03:38:04.281Z,50.88
2018-09-27T03:40:33.483Z,50.55
2018-09-27T03:43:02.615Z,51.25
2018-09-27T03:45:31.837Z,50.54
2018-09-27T03:48:00.974Z,50.07
2018-09-27T03:50:30.149Z,49.82
2018-09-27T03:52:59.298Z,50.93
2018-09-27T03:55:28.445Z,50.26
2018-09-27T03:57:57.557Z,49.81
2018-09-27T04:00:26.750Z,49.92
2018-09-27T04:02:55.921Z,49.97
2018-09-27T04:05:25.036Z,49.73
2018-09-27T04:07:54.215Z,50.04
2018-09-27T04:10:23.364Z,50.00
2018-09-27T04:12:52.470Z,49.48
2018-09-27T04:15:21.881Z,49.42
2018-09-27T04:17:50.977Z,49.61
2018-09-27T04:20:20.134Z,48.74
2018-09-27T04:22:49.641Z,49.13
2018-09-27T04:25:18.724Z,49.07
2018-09-27T04:27:48.258Z,48.75
2018-09-27T04:30:17.499Z,48.64
2018-09-27T04:32:46.620Z,47.86
2018-09-27T04:35:15.739Z,48.73
2018-09-27T04:37:44.940Z,48.03
2018-09-27T04:40:14.078Z,47.24
2018-09-27T04:42:43.219Z,47.05
2018-09-27T04:45:13.154Z,47.44
2018-09-27T04:47:42.487Z,46.80
2018-09-27T04:50:11.896Z,46.59
2018-09-27T04:52:41.065Z,46.40
2018-09-27T04:55:10.496Z,45.65
2018-09-27T04:57:39.946Z,46.00
2018-09-27T05:00:09.523Z,45.76
2018-09-27T05:02:38.608Z,45.22
2018-09-27T05:05:07.877Z,45.56
2018-09-27T05:07:36.974Z,45.67
2018-09-27T05:10:06.679Z,45.33
2018-09-27T05:12:36.462Z,45.13
2018-09-27T05:15:05.551Z,45.78
2018-09-27T05:17:34.792Z,47.13
2018-09-27T05:20:03.970Z,45.65
2018-09-27T05:22:33.110Z,45.52
2018-09-27T05:25:02.283Z,45.25
2018-09-27T05:27:31.376Z,44.59
2018-09-27T05:30:00.831Z,45.25
2018-09-27T05:32:30.034Z,45.72
2018-09-27T05:34:59.185Z,45.74
2018-09-27T05:37:28.317Z,45.93
2018-09-27T05:39:57.598Z,45.53
2018-09-27T05:42:26.744Z,44.83
2018-09-27T05:44:55.823Z,45.66
2018-09-27T05:47:25.176Z,45.16
2018-09-27T05:49:54.339Z,45.21
2018-09-27T05:52:23.573Z,44.34
2018-09-27T05:54:52.671Z,44.99
2018-09-27T05:57:21.802Z,44.71
2018-09-27T05:59:51.016Z,44.50
2018-09-27T06:02:20.241Z,44.07
2018-09-27T06:04:54.642Z,43.52
2018-09-27T06:07:23.685Z,43.64
2018-09-27T06:09:53.277Z,42.79
2018-09-27T06:12:22.413Z,43.23
2018-09-27T06:14:51.430Z,42.75
2018-09-27T06:17:20.566Z,43.28
2018-09-27T06:19:49.672Z,43.29
2018-09-27T06:22:18.747Z,42.87
2018-09-27T06:24:48.065Z,43.30
2018-09-27T06:27:17.040Z,43.13
2018-09-27T06:29:46.059Z,43.13
2018-09-27T06:32:15.387Z,43.41
2018-09-27T06:34:44.803Z,44.13
2018-09-27T06:37:14.154Z,44.55
2018-09-27T06:39:43.245Z,44.10
2018-09-27T06:42:12.038Z,44.67
2018-09-27T06:44:40.886Z,44.78
2018-09-27T06:47:09.668Z,44.36
2018-09-27T06:49:38.461Z,43.80
2018-09-27T06:52:07.293Z,44.63
2018-09-27T06:54:36.447Z,45.11
2018-09-27T06:57:05.912Z,44.98
2018-09-27T06:59:34.745Z,45.27
2018-09-27T07:02:03.550Z,45.58
2018-09-27T07:04:32.349Z,45.19
2018-09-27T07:07:01.133Z,44.75
2018-09-27T07:09:29.937Z,44.33
2018-09-27T07:11:58.939Z,43.83
2018-09-27T07:14:27.798Z,43.80
2018-09-27T07:16:56.639Z,44.16
2018-09-27T07:19:25.750Z,43.98
2018-09-27T07:21:54.533Z,43.05
2018-09-27T07:24:23.365Z,44.39
2018-09-27T07:26:52.555Z,44.87
2018-09-27T07:29:21.632Z,43.85
2018-09-27T07:31:50.426Z,43.78
2018-09-27T07:34:19.262Z,43.95
2018-09-27T07:36:48.276Z,43.28
2018-09-27T07:39:17.277Z,42.11
2018-09-27T07:41:46.288Z,41.68
2018-09-27T07:44:15.097Z,42.44
2018-09-27T07:46:43.884Z,42.43
2018-09-27T07:49:12.722Z,42.74
2018-09-27T07:51:41.898Z,41.46
2018-09-27T07:54:10.693Z,41.26
2018-09-27T07:56:39.517Z,41.12
2018-09-27T07:59:08.504Z,40.50
2018-09-27T08:01:37.528Z,40.54
2018-09-27T08:04:06.476Z,40.61
2018-09-27T08:06:35.260Z,40.39
2018-09-27T08:09:04.669Z,40.48
2018-09-27T08:11:33.890Z,40.48
2018-09-27T08:14:02.642Z,40.75
2018-09-27T08:16:31.471Z,40.61
2018-09-27T08:19:00.533Z,40.81
2018-09-27T08:21:29.366Z,40.52
2018-09-27T08:23:58.212Z,40.88
2018-09-27T08:26:27.046Z,40.57
2018-09-27T08:28:56.193Z,40.83
2018-09-27T08:31:24.969Z,41.33
2018-09-27T08:33:54.055Z,42.02
2018-09-27T08:36:23.177Z,41.34
2018-09-27T08:38:52.051Z,40.08
2018-09-27T08:41:21.185Z,39.91
2018-09-27T08:43:50.125Z,40.58
2018-09-27T08:46:19.073Z,40.85
2018-09-27T08:48:47.924Z,41.37
2018-09-27T08:51:16.769Z,41.99
2018-09-27T08:53:45.596Z,40.83
2018-09-27T08:56:14.535Z,40.70
2018-09-27T08:58:43.338Z,41.07
2018-09-27T09:01:12.485Z,40.78
2018-09-27T09:03:41.383Z,41.38
2018-09-27T09:06:10.492Z,41.11
2018-09-27T09:08:39.348Z,41.02
2018-09-27T09:11:08.187Z,41.20
2018-09-27T09:13:37.048Z,40.76
2018-09-27T09:16:05.877Z,41.48
2018-09-27T09:18:35.115Z,41.58
2018-09-27T09:21:04.733Z,41.85
2018-09-27T09:23:33.561Z,41.68
2018-09-27T09:26:02.499Z,41.42
2018-09-27T09:28:31.386Z,40.98
2018-09-27T09:31:00.744Z,41.03
2018-09-27T09:33:29.872Z,40.30
2018-09-27T09:35:58.788Z,41.34
2018-09-27T09:38:28.062Z,41.29
2018-09-27T09:40:56.892Z,41.21
2018-09-27T09:43:25.981Z,40.66
2018-09-27T09:45:55.029Z,40.82
2018-09-27T09:48:23.884Z,40.42
2018-09-27T09:50:52.769Z,40.79
2018-09-27T09:53:21.636Z,40.08
2018-09-27T09:55:50.753Z,41.50
2018-09-27T09:58:19.597Z,41.41
2018-09-27T10:00:48.768Z,40.78
2018-09-27T10:03:18.117Z,40.26
2018-09-27T10:05:46.997Z,40.17
2018-09-27T10:08:15.827Z,39.12
2018-09-27T10:10:44.709Z,39.11
2018-09-27T10:13:13.619Z,41.48
2018-09-27T10:15:42.849Z,42.19
2018-09-27T10:18:12.040Z,40.82
2018-09-27T10:20:41.180Z,40.69
2018-09-27T10:23:10.872Z,39.90
2018-09-27T10:25:39.899Z,41.31
2018-09-27T10:28:08.836Z,43.25
2018-09-27T10:30:37.921Z,44.21
2018-09-27T10:33:06.794Z,42.12
2018-09-27T10:35:35.638Z,43.26
2018-09-27T10:38:04.740Z,43.97
2018-09-27T10:40:33.850Z,44.25
2018-09-27T10:43:02.909Z,45.30
2018-09-27T10:45:31.865Z,44.36
2018-09-27T10:48:01.057Z,44.89
2018-09-27T10:50:30.180Z,44.53
2018-09-27T10:52:59.422Z,43.81
2018-09-27T10:55:28.581Z,44.30
2018-09-27T10:57:57.649Z,43.56
2018-09-27T11:00:26.802Z,44.55
2018-09-27T11:02:55.973Z,44.43
2018-09-27T11:05:24.841Z,44.09
2018-09-27T11:07:53.689Z,42.20
2018-09-27T11:10:22.512Z,43.35
2018-09-27T11:12:51.347Z,43.01
2018-09-27T11:15:20.192Z,44.02
2018-09-27T11:17:49.037Z,44.71
2018-09-27T11:20:17.979Z,41.13
2018-09-27T11:22:46.848Z,43.42
2018-09-27T11:25:15.677Z,42.93
2018-09-27T11:27:44.741Z,42.30
2018-09-27T11:30:18.577Z,42.93
2018-09-27T11:32:47.844Z,44.56
2018-09-27T11:35:16.722Z,44.24
2018-09-27T11:37:45.591Z,42.62
2018-09-27T11:40:14.445Z,43.14
2018-09-27T11:42:43.294Z,42.83
2018-09-27T11:45:12.509Z,43.17
2018-09-27T11:47:41.653Z,43.95
2018-09-27T11:50:10.593Z,42.15
2018-09-27T11:52:39.735Z,41.57
2018-09-27T11:55:08.776Z,43.03
2018-09-27T11:57:37.677Z,41.07
2018-09-27T12:00:07.708Z,41.86
2018-09-27T12:02:36.580Z,41.43
2018-09-27T12:05:05.973Z,41.06
2018-09-27T12:07:35.191Z,40.19
2018-09-27T12:10:04.495Z,41.15
2018-09-27T12:12:33.541Z,42.17
2018-09-27T12:15:02.669Z,41.11
2018-09-27T12:17:31.825Z,42.10
2018-09-27T12:20:00.792Z,41.49
2018-09-27T12:22:29.606Z,41.42
2018-09-27T12:24:58.469Z,41.45
2018-09-27T12:27:27.344Z,41.67
2018-09-27T12:29:56.168Z,43.59
2018-09-27T12:32:25.048Z,45.46
2018-09-27T12:34:54.257Z,46.91
2018-09-27T12:37:23.457Z,48.08
2018-09-27T12:39:52.340Z,48.24
2018-09-27T12:42:21.179Z,48.28
2018-09-27T12:44:50.047Z,47.33
2018-09-27T12:47:18.937Z,47.65
2018-09-27T12:49:47.797Z,48.18
2018-09-27T12:52:17.045Z,49.52
2018-09-27T12:54:45.786Z,48.48
2018-09-27T12:57:14.777Z,48.49
2018-09-27T12:59:43.570Z,49.62
2018-09-27T13:02:12.802Z,50.64
2018-09-27T13:04:41.699Z,49.88
2018-09-27T13:07:10.690Z,49.23
2018-09-27T13:09:39.716Z,49.22
2018-09-27T13:12:08.476Z,50.80
2018-09-27T13:14:37.346Z,50.26
2018-09-27T13:17:06.189Z,51.72
2018-09-27T13:19:35.107Z,52.19
2018-09-27T13:22:03.966Z,51.09
2018-09-27T13:24:32.823Z,49.40
2018-09-27T13:27:01.777Z,48.21
2018-09-27T13:29:31.315Z,50.86
2018-09-27T13:32:00.277Z,50.73
2018-09-27T13:34:30.124Z,50.41
2018-09-27T13:36:59.238Z,50.69
2018-09-27T13:39:28.320Z,47.98
2018-09-27T13:41:57.508Z,47.73
2018-09-27T13:44:26.803Z,49.17
2018-09-27T13:46:55.905Z,51.16
2018-09-27T13:49:25.413Z,49.95
2018-09-27T13:51:54.457Z,51.57
2018-09-27T13:54:23.529Z,52.77
2018-09-27T13:56:52.736Z,51.42
2018-09-27T13:59:22.276Z,52.26
2018-09-27T14:01:51.372Z,52.06
2018-09-27T14:04:20.461Z,52.49
2018-09-27T14:06:49.842Z,52.43
2018-09-27T14:09:19.292Z,52.25
2018-09-27T14:11:48.699Z,51.03
2018-09-27T14:14:18.198Z,50.37
2018-09-27T14:16:47.811Z,51.00
2018-09-27T14:19:17.419Z,50.67
2018-09-27T14:21:47.070Z,50.28
2018-09-27T14:24:16.576Z,50.44
2018-09-27T14:26:45.776Z,52.21
2018-09-27T14:29:14.907Z,52.24
2018-09-27T14:31:43.964Z,51.02
2018-09-27T14:34:13.419Z,49.83
2018-09-27T14:36:42.876Z,49.98
2018-09-27T14:39:12.203Z,49.95
2018-09-27T14:41:41.619Z,51.11
2018-09-27T14:44:10.664Z,51.19
2018-09-27T14:46:39.687Z,50.42
2018-09-27T14:49:08.940Z,50.79
2018-09-27T14:51:38.287Z,50.00
2018-09-27T14:54:07.808Z,46.91
2018-09-27T14:56:37.209Z,45.36
2018-09-27T14:59:06.264Z,42.87
2018-09-27T15:01:35.825Z,43.13
2018-09-27T15:04:06.612Z,42.90
2018-09-27T15:06:35.681Z,40.75
2018-09-27T15:09:05.946Z,40.77
2018-09-27T15:11:35.185Z,42.32
2018-09-27T15:14:04.227Z,43.32
2018-09-27T15:16:33.413Z,40.75
2018-09-27T15:19:02.967Z,41.76
2018-09-27T15:21:32.283Z,41.69
2018-09-27T15:24:02.424Z,42.04
2018-09-27T15:26:32.330Z,42.65
2018-09-27T15:29:01.775Z,41.17
2018-09-27T15:31:31.201Z,41.28
2018-09-27T15:34:00.584Z,43.67
2018-09-27T15:36:29.978Z,44.54
2018-09-27T15:38:59.397Z,42.64
2018-09-27T15:41:28.978Z,43.71
2018-09-27T15:43:58.623Z,45.03
2018-09-27T15:46:27.963Z,45.41
2018-09-27T15:48:57.041Z,48.19
2018-09-27T15:51:26.448Z,49.31
2018-09-27T15:53:55.899Z,48.84
2018-09-27T15:56:25.482Z,50.23
2018-09-27T15:58:54.806Z,51.45
2018-09-27T16:01:23.923Z,52.72
2018-09-27T16:03:53.191Z,53.38
2018-09-27T16:06:22.600Z,54.38
2018-09-27T16:08:51.642Z,55.74
2018-09-27T16:11:21.546Z,56.15
2018-09-27T16:13:51.040Z,56.31
2018-09-27T16:16:20.040Z,56.75
2018-09-27T16:18:49.110Z,57.35
2018-09-27T16:21:18.172Z,57.86
2018-09-27T16:23:47.906Z,58.63
2018-09-27T16:26:17.161Z,56.91
2018-09-27T16:28:46.247Z,57.37
2018-09-27T16:31:15.974Z,57.49
2018-09-27T16:33:45.018Z,58.14
2018-09-27T16:36:14.361Z,57.85
2018-09-27T16:38:43.564Z,58.43
2018-09-27T16:41:12.952Z,58.10
2018-09-27T16:43:42.038Z,58.91
2018-09-27T16:46:11.115Z,59.35
2018-09-27T16:48:40.212Z,59.23
2018-09-27T16:51:09.441Z,60.07
2018-09-27T16:53:38.941Z,59.40
2018-09-27T16:56:08.445Z,58.69
2018-09-27T16:58:37.882Z,59.45
2018-09-27T17:01:07.130Z,57.58
2018-09-27T17:03:36.522Z,58.60
2018-09-27T17:06:05.822Z,59.47
2018-09-27T17:08:34.950Z,59.55
2018-09-27T17:11:04.419Z,59.05
2018-09-27T17:13:33.685Z,58.96
2018-09-27T17:16:02.762Z,58.02
2018-09-27T17:18:32.068Z,59.00
2018-09-27T17:21:01.726Z,60.24
2018-09-27T17:23:31.266Z,60.06
2018-09-27T17:26:00.979Z,61.39
2018-09-27T17:28:30.099Z,61.02
2018-09-27T17:30:59.310Z,61.44
2018-09-27T17:33:28.368Z,58.84
2018-09-27T17:35:57.470Z,59.48
2018-09-27T17:38:26.780Z,58.40
2018-09-27T17:40:56.198Z,58.22
2018-09-27T17:43:25.574Z,57.55
2018-09-27T17:45:54.953Z,56.25
2018-09-27T17:48:23.972Z,57.64
2018-09-27T17:50:53.174Z,57.72
2018-09-27T17:53:22.640Z,59.16
2018-09-27T17:55:51.662Z,59.79
2018-09-27T17:58:20.718Z,58.92
2018-09-27T18:00:50.056Z,58.64
2018-09-27T18:03:19.371Z,58.72
2018-09-27T18:05:48.652Z,60.36
2018-09-27T18:08:18.035Z,60.85
2018-09-27T18:10:47.290Z,61.23
2018-09-27T18:13:16.388Z,61.17
2018-09-27T18:15:45.364Z,61.87
2018-09-27T18:18:14.841Z,61.73
2018-09-27T18:20:44.225Z,62.45
2018-09-27T18:23:13.604Z,61.96
2018-09-27T18:25:42.722Z,62.37
2018-09-27T18:28:12.158Z,61.91
2018-09-27T18:30:41.650Z,62.10
2018-09-27T18:33:10.965Z,61.20
2018-09-27T18:35:39.981Z,61.73
2018-09-27T18:38:09.325Z,61.07
2018-09-27T18:40:38.318Z,61.03
2018-09-27T18:43:07.380Z,61.50
2018-09-27T18:45:36.942Z,61.70
2018-09-27T18:48:05.972Z,61.58
2018-09-27T18:50:35.089Z,62.00
2018-09-27T18:53:04.225Z,62.37
2018-09-27T18:55:33.418Z,61.62
2018-09-27T18:58:02.459Z,62.90
2018-09-27T19:00:31.500Z,62.21
2018-09-27T19:03:00.534Z,63.05
2018-09-27T19:05:30.233Z,63.08
2018-09-27T19:07:59.267Z,63.26
2018-09-27T19:10:28.350Z,62.58
2018-09-27T19:12:57.436Z,63.08
2018-09-27T19:15:26.738Z,63.23
2018-09-27T19:17:55.967Z,61.55
2018-09-27T19:20:25.179Z,64.01
2018-09-27T19:22:54.419Z,64.75
2018-09-27T19:25:23.997Z,65.06
2018-09-27T19:27:53.189Z,67.90
2018-09-27T19:30:22.292Z,69.11
2018-09-27T19:32:51.822Z,67.52
2018-09-27T19:35:20.929Z,66.30
2018-09-27T19:37:49.972Z,69.32
2018-09-27T19:40:19.441Z,71.63
2018-09-27T19:42:48.633Z,72.47
2018-09-27T19:45:17.755Z,72.30
2018-09-27T19:47:46.812Z,73.56
2018-09-27T19:50:15.803Z,73.71
2018-09-27T19:52:44.958Z,73.32
2018-09-27T19:55:14.017Z,75.66
2018-09-27T19:57:43.441Z,76.28
2018-09-27T20:00:12.871Z,76.10
2018-09-27T20:02:42.557Z,74.83
2018-09-27T20:05:12.049Z,76.64
2018-09-27T20:07:41.651Z,76.99
2018-09-27T20:10:10.753Z,77.39
2018-09-27T20:12:40.029Z,77.01
2018-09-27T20:15:09.108Z,76.91
2018-09-27T20:17:38.411Z,76.55
2018-09-27T20:20:07.495Z,75.43
2018-09-27T20:22:36.597Z,72.12
2018-09-27T20:25:06.349Z,72.72
2018-09-27T20:27:35.612Z,71.85
2018-09-27T20:30:04.856Z,72.55
2018-09-27T20:32:34.321Z,73.60
2018-09-27T20:35:03.445Z,74.89
2018-09-27T20:37:32.574Z,75.38
2018-09-27T20:40:01.926Z,76.82
2018-09-27T20:42:31.229Z,77.91
2018-09-27T20:45:00.244Z,76.05
2018-09-27T20:47:29.767Z,75.67
2018-09-27T20:49:59.178Z,75.12
2018-09-27T20:52:28.504Z,74.46
2018-09-27T20:54:57.973Z,74.00
2018-09-27T20:57:27.187Z,72.01
2018-09-27T20:59:56.223Z,72.20
2018-09-27T21:02:25.304Z,71.75
2018-09-27T21:04:54.521Z,72.26
2018-09-27T21:07:23.558Z,71.80
2018-09-27T21:09:52.793Z,72.05
2018-09-27T21:12:22.288Z,72.62
2018-09-27T21:14:51.326Z,72.98
2018-09-27T21:17:20.506Z,73.02
2018-09-27T21:19:49.557Z,73.00
2018-09-27T21:22:18.889Z,72.92
2018-09-27T21:24:48.090Z,73.89
2018-09-27T21:27:17.579Z,74.55
2018-09-27T21:29:47.045Z,74.50
2018-09-27T21:32:16.254Z,75.21
2018-09-27T21:34:45.696Z,74.80
2018-09-27T21:37:14.953Z,75.33
2018-09-27T21:39:44.431Z,75.37
2018-09-27T21:42:14.067Z,74.73
2018-09-27T21:44:43.254Z,75.04
2018-09-27T21:47:12.640Z,74.97
2018-09-27T21:49:41.820Z,74.89
2018-09-27T21:52:11.147Z,74.10
2018-09-27T21:54:40.461Z,74.21
2018-09-27T21:57:09.513Z,73.74
2018-09-27T21:59:38.812Z,74.74
2018-09-27T22:02:08.095Z,72.74
2018-09-27T22:04:37.735Z,72.47
2018-09-27T22:07:07.181Z,72.92
2018-09-27T22:09:36.692Z,72.84
2018-09-27T22:12:06.060Z,73.25
2018-09-27T22:14:35.168Z,72.63
2018-09-27T22:17:04.857Z,73.29
2018-09-27T22:19:34.251Z,73.21
2018-09-27T22:22:03.574Z,73.20
2018-09-27T22:24:32.909Z,73.25
2018-09-27T22:27:03.662Z,75.23
2018-09-27T22:29:33.695Z,75.52
2018-09-27T22:32:03.352Z,75.85
2018-09-27T22:34:32.719Z,75.34
2018-09-27T22:37:02.108Z,75.49
2018-09-27T22:39:31.441Z,75.40
2018-09-27T22:42:00.522Z,75.36
2018-09-27T22:44:29.896Z,75.91
2018-09-27T22:46:58.977Z,75.92
2018-09-27T22:49:28.167Z,76.02
2018-09-27T22:51:57.194Z,76.63
2018-09-27T22:54:27.069Z,76.24
2018-09-27T22:56:56.081Z,76.07
2018-09-27T22:59:25.419Z,76.96
2018-09-27T23:01:54.519Z,76.40
2018-09-27T23:04:24.111Z,75.26
2018-09-27T23:06:53.148Z,74.60
2018-09-27T23:09:22.131Z,74.60
2018-09-27T23:11:51.238Z,75.09
2018-09-27T23:14:20.429Z,74.64
2018-09-27T23:16:49.440Z,75.52
2018-09-27T23:19:18.515Z,73.98
2018-09-27T23:21:47.571Z,74.93
2018-09-27T23:24:16.757Z,75.54
2018-09-27T23:26:46.103Z,74.00
2018-09-27T23:29:15.114Z,74.07
2018-09-27T23:31:44.806Z,73.86
2018-09-27T23:34:14.249Z,74.68
2018-09-27T23:36:43.357Z,74.37
2018-09-27T23:39:12.436Z,74.55
2018-09-27T23:41:42.105Z,73.62
2018-09-27T23:44:11.261Z,73.58
2018-09-27T23:46:40.638Z,72.21
2018-09-27T23:49:10.028Z,72.64
2018-09-27T23:51:39.507Z,73.40
2018-09-27T23:54:09.398Z,74.29
2018-09-27T23:56:38.889Z,75.71
2018-09-27T23:59:08.127Z,75.90
